sensor_id;sensor_type;location;lat;lon;timestamp;temperature;humidity
39957;DHT22;48483;44.640;7.494;2023-03-04T00:00:48;9.50;99.90
39957;DHT22;48483;44.640;7.494;2023-03-04T00:03:15;9.40;99.90
39957;DHT22;48483;44.640;7.494;2023-03-04T00:05:42;9.40;99.90
39957;DHT22;48483;44.640;7.494;2023-03-04T00:08:09;9.40;99.90
39957;DHT22;48483;44.640;7.494;2023-03-04T00:10:36;9.40;99.90
39957;DHT22;48483;44.640;7.494;2023-03-04T00:13:02;9.40;99.90
39957;DHT22;48483;44.640;7.494;2023-03-04T00:15:31;9.50;99.90
39957;DHT22;48483;44.640;7.494;2023-03-04T00:17:57;9.40;99.90
39957;DHT22;48483;44.640;7.494;2023-03-04T00:20:24;9.40;99.90
39957;DHT22;48483;44.640;7.494;2023-03-04T00:22:51;9.50;99.90
39957;DHT22;48483;44.640;7.494;2023-03-04T00:25:17;9.60;99.90
39957;DHT22;48483;44.640;7.494;2023-03-04T00:27:44;9.60;99.90
39957;DHT22;48483;44.640;7.494;2023-03-04T00:30:13;9.60;99.90
39957;DHT22;48483;44.640;7.494;2023-03-04T00:32:40;9.50;99.90
39957;DHT22;48483;44.640;7.494;2023-03-04T00:35:08;9.50;99.90
39957;DHT22;48483;44.640;7.494;2023-03-04T00:37:35;9.50;99.90
39957;DHT22;48483;44.640;7.494;2023-03-04T00:40:03;9.40;99.90
39957;DHT22;48483;44.640;7.494;2023-03-04T00:42:30;9.40;99.90
39957;DHT22;48483;44.640;7.494;2023-03-04T00:44:56;9.50;99.90
39957;DHT22;48483;44.640;7.494;2023-03-04T00:47:23;9.40;99.90
39957;DHT22;48483;44.640;7.494;2023-03-04T00:49:51;9.50;99.90
39957;DHT22;48483;44.640;7.494;2023-03-04T00:52:18;9.40;99.90
39957;DHT22;48483;44.640;7.494;2023-03-04T00:54:44;9.50;99.90
39957;DHT22;48483;44.640;7.494;2023-03-04T00:57:11;9.40;99.90
39957;DHT22;48483;44.640;7.494;2023-03-04T00:59:38;9.50;99.90
39957;DHT22;48483;44.640;7.494;2023-03-04T01:02:06;9.40;99.90
39957;DHT22;48483;44.640;7.494;2023-03-04T01:04:32;9.40;99.90
39957;DHT22;48483;44.640;7.494;2023-03-04T01:07:00;9.50;99.90
39957;DHT22;48483;44.640;7.494;2023-03-04T01:09:28;9.40;99.90
39957;DHT22;48483;44.640;7.494;2023-03-04T01:11:56;9.40;99.90
39957;DHT22;48483;44.640;7.494;2023-03-04T01:14:22;9.40;99.90
39957;DHT22;48483;44.640;7.494;2023-03-04T01:16:49;9.40;99.90
39957;DHT22;48483;44.640;7.494;2023-03-04T01:19:16;9.40;99.90
39957;DHT22;48483;44.640;7.494;2023-03-04T01:21:43;9.30;99.90
39957;DHT22;48483;44.640;7.494;2023-03-04T01:24:11;9.30;99.90
39957;DHT22;48483;44.640;7.494;2023-03-04T01:26:40;9.30;99.90
39957;DHT22;48483;44.640;7.494;2023-03-04T01:29:06;9.30;99.90
39957;DHT22;48483;44.640;7.494;2023-03-04T01:31:33;9.30;99.90
39957;DHT22;48483;44.640;7.494;2023-03-04T01:33:59;9.30;99.90
39957;DHT22;48483;44.640;7.494;2023-03-04T01:36:26;9.30;99.90
39957;DHT22;48483;44.640;7.494;2023-03-04T01:38:52;9.30;99.90
39957;DHT22;48483;44.640;7.494;2023-03-04T01:41:23;9.30;99.90
39957;DHT22;48483;44.640;7.494;2023-03-04T01:43:50;9.20;99.90
39957;DHT22;48483;44.640;7.494;2023-03-04T01:46:16;9.30;99.90
39957;DHT22;48483;44.640;7.494;2023-03-04T01:48:43;9.20;99.90
39957;DHT22;48483;44.640;7.494;2023-03-04T01:51:12;9.20;99.90
39957;DHT22;48483;44.640;7.494;2023-03-04T01:53:39;9.20;99.90
39957;DHT22;48483;44.640;7.494;2023-03-04T01:56:12;9.20;99.90
39957;DHT22;48483;44.640;7.494;2023-03-04T01:58:41;9.20;99.90
39957;DHT22;48483;44.640;7.494;2023-03-04T02:01:10;9.10;99.90
39957;DHT22;48483;44.640;7.494;2023-03-04T02:03:37;9.20;99.90
39957;DHT22;48483;44.640;7.494;2023-03-04T02:06:04;9.20;99.90
39957;DHT22;48483;44.640;7.494;2023-03-04T02:08:31;9.20;99.90
39957;DHT22;48483;44.640;7.494;2023-03-04T02:10:58;9.10;99.90
39957;DHT22;48483;44.640;7.494;2023-03-04T02:13:25;9.20;99.90
39957;DHT22;48483;44.640;7.494;2023-03-04T02:15:54;9.20;99.90
39957;DHT22;48483;44.640;7.494;2023-03-04T02:18:22;9.10;99.90
39957;DHT22;48483;44.640;7.494;2023-03-04T02:20:55;9.00;99.90
39957;DHT22;48483;44.640;7.494;2023-03-04T02:23:29;8.90;99.90
39957;DHT22;48483;44.640;7.494;2023-03-04T02:26:23;8.90;99.90
39957;DHT22;48483;44.640;7.494;2023-03-04T02:28:54;8.70;99.90
39957;DHT22;48483;44.640;7.494;2023-03-04T02:31:24;8.70;99.90
39957;DHT22;48483;44.640;7.494;2023-03-04T02:33:53;8.60;99.90
39957;DHT22;48483;44.640;7.494;2023-03-04T02:36:21;8.60;99.90
39957;DHT22;48483;44.640;7.494;2023-03-04T02:38:49;8.50;99.90
39957;DHT22;48483;44.640;7.494;2023-03-04T02:41:19;8.50;99.90
39957;DHT22;48483;44.640;7.494;2023-03-04T02:43:50;8.50;99.90
39957;DHT22;48483;44.640;7.494;2023-03-04T02:46:18;8.50;99.90
39957;DHT22;48483;44.640;7.494;2023-03-04T02:48:45;8.50;99.90
39957;DHT22;48483;44.640;7.494;2023-03-04T02:51:11;8.40;99.90
39957;DHT22;48483;44.640;7.494;2023-03-04T02:53:38;8.40;99.90
39957;DHT22;48483;44.640;7.494;2023-03-04T02:56:05;8.30;99.90
39957;DHT22;48483;44.640;7.494;2023-03-04T02:58:35;8.30;99.90
39957;DHT22;48483;44.640;7.494;2023-03-04T03:01:05;8.30;99.90
39957;DHT22;48483;44.640;7.494;2023-03-04T03:03:32;8.20;99.90
39957;DHT22;48483;44.640;7.494;2023-03-04T03:05:59;8.20;99.90
39957;DHT22;48483;44.640;7.494;2023-03-04T03:08:26;8.20;99.90
39957;DHT22;48483;44.640;7.494;2023-03-04T03:10:54;8.10;99.90
39957;DHT22;48483;44.640;7.494;2023-03-04T03:13:21;8.10;99.90
39957;DHT22;48483;44.640;7.494;2023-03-04T03:15:48;8.10;99.90
39957;DHT22;48483;44.640;7.494;2023-03-04T03:18:16;8.10;99.90
39957;DHT22;48483;44.640;7.494;2023-03-04T03:20:43;8.10;99.90
39957;DHT22;48483;44.640;7.494;2023-03-04T03:23:09;8.10;99.90
39957;DHT22;48483;44.640;7.494;2023-03-04T03:25:36;8.10;99.90
39957;DHT22;48483;44.640;7.494;2023-03-04T03:28:02;8.00;99.90
39957;DHT22;48483;44.640;7.494;2023-03-04T03:30:29;8.00;99.90
39957;DHT22;48483;44.640;7.494;2023-03-04T03:32:56;8.00;99.90
39957;DHT22;48483;44.640;7.494;2023-03-04T03:35:25;8.00;99.90
39957;DHT22;48483;44.640;7.494;2023-03-04T03:37:51;7.90;99.90
39957;DHT22;48483;44.640;7.494;2023-03-04T03:40:18;7.90;99.90
39957;DHT22;48483;44.640;7.494;2023-03-04T03:42:44;7.90;99.90
39957;DHT22;48483;44.640;7.494;2023-03-04T03:45:11;7.90;99.90
39957;DHT22;48483;44.640;7.494;2023-03-04T03:47:38;7.80;99.90
39957;DHT22;48483;44.640;7.494;2023-03-04T03:50:05;7.80;99.90
39957;DHT22;48483;44.640;7.494;2023-03-04T03:52:33;7.80;99.90
39957;DHT22;48483;44.640;7.494;2023-03-04T03:55:00;7.80;99.90
39957;DHT22;48483;44.640;7.494;2023-03-04T03:57:27;7.70;99.90
39957;DHT22;48483;44.640;7.494;2023-03-04T03:59:54;7.70;99.90
39957;DHT22;48483;44.640;7.494;2023-03-04T04:02:20;7.70;99.90
39957;DHT22;48483;44.640;7.494;2023-03-04T04:04:47;7.70;99.90
39957;DHT22;48483;44.640;7.494;2023-03-04T04:07:14;7.70;99.90
39957;DHT22;48483;44.640;7.494;2023-03-04T04:09:42;7.70;99.90
39957;DHT22;48483;44.640;7.494;2023-03-04T04:12:09;7.60;99.90
39957;DHT22;48483;44.640;7.494;2023-03-04T04:14:36;7.50;99.90
39957;DHT22;48483;44.640;7.494;2023-03-04T04:17:03;7.50;99.90
39957;DHT22;48483;44.640;7.494;2023-03-04T04:19:29;7.50;99.90
39957;DHT22;48483;44.640;7.494;2023-03-04T04:21:56;7.50;99.90
39957;DHT22;48483;44.640;7.494;2023-03-04T04:24:23;7.40;99.90
39957;DHT22;48483;44.640;7.494;2023-03-04T04:26:51;7.40;99.90
39957;DHT22;48483;44.640;7.494;2023-03-04T04:29:17;7.40;99.90
39957;DHT22;48483;44.640;7.494;2023-03-04T04:31:44;7.30;99.90
39957;DHT22;48483;44.640;7.494;2023-03-04T04:34:10;7.30;99.90
39957;DHT22;48483;44.640;7.494;2023-03-04T04:36:37;7.30;99.90
39957;DHT22;48483;44.640;7.494;2023-03-04T04:39:04;7.30;99.90
39957;DHT22;48483;44.640;7.494;2023-03-04T04:41:35;7.20;99.90
39957;DHT22;48483;44.640;7.494;2023-03-04T04:44:04;7.20;99.90
39957;DHT22;48483;44.640;7.494;2023-03-04T04:46:31;7.20;99.90
39957;DHT22;48483;44.640;7.494;2023-03-04T04:48:57;7.20;99.90
39957;DHT22;48483;44.640;7.494;2023-03-04T04:51:24;7.20;99.90
39957;DHT22;48483;44.640;7.494;2023-03-04T04:53:51;7.20;99.90
39957;DHT22;48483;44.640;7.494;2023-03-04T04:56:19;7.20;99.90
39957;DHT22;48483;44.640;7.494;2023-03-04T04:58:46;7.20;99.90
39957;DHT22;48483;44.640;7.494;2023-03-04T05:01:15;7.30;99.90
39957;DHT22;48483;44.640;7.494;2023-03-04T05:03:42;7.30;99.90
39957;DHT22;48483;44.640;7.494;2023-03-04T05:06:10;7.30;99.90
39957;DHT22;48483;44.640;7.494;2023-03-04T05:08:37;7.30;99.90
39957;DHT22;48483;44.640;7.494;2023-03-04T05:11:05;7.30;99.90
39957;DHT22;48483;44.640;7.494;2023-03-04T05:13:32;7.30;99.90
39957;DHT22;48483;44.640;7.494;2023-03-04T05:16:00;7.30;99.90
39957;DHT22;48483;44.640;7.494;2023-03-04T05:18:28;7.30;99.90
39957;DHT22;48483;44.640;7.494;2023-03-04T05:20:56;7.30;99.90
39957;DHT22;48483;44.640;7.494;2023-03-04T05:23:23;7.30;99.90
39957;DHT22;48483;44.640;7.494;2023-03-04T05:25:50;7.30;99.90
39957;DHT22;48483;44.640;7.494;2023-03-04T05:28:17;7.30;99.90
39957;DHT22;48483;44.640;7.494;2023-03-04T05:30:44;7.30;99.90
39957;DHT22;48483;44.640;7.494;2023-03-04T05:33:12;7.30;99.90
39957;DHT22;48483;44.640;7.494;2023-03-04T05:35:41;7.40;99.90
39957;DHT22;48483;44.640;7.494;2023-03-04T05:38:10;7.30;99.90
39957;DHT22;48483;44.640;7.494;2023-03-04T05:40:37;7.30;99.90
39957;DHT22;48483;44.640;7.494;2023-03-04T05:43:04;7.20;99.90
39957;DHT22;48483;44.640;7.494;2023-03-04T05:45:31;7.20;99.90
39957;DHT22;48483;44.640;7.494;2023-03-04T05:47:57;7.10;99.90
39957;DHT22;48483;44.640;7.494;2023-03-04T05:50:24;7.10;99.90
39957;DHT22;48483;44.640;7.494;2023-03-04T05:52:53;7.00;99.90
39957;DHT22;48483;44.640;7.494;2023-03-04T05:55:20;7.00;99.90
39957;DHT22;48483;44.640;7.494;2023-03-04T05:57:47;7.00;99.90
39957;DHT22;48483;44.640;7.494;2023-03-04T06:00:14;6.90;99.90
39957;DHT22;48483;44.640;7.494;2023-03-04T06:02:42;6.80;99.90
39957;DHT22;48483;44.640;7.494;2023-03-04T06:05:13;6.80;99.90
39957;DHT22;48483;44.640;7.494;2023-03-04T06:07:40;6.80;99.90
39957;DHT22;48483;44.640;7.494;2023-03-04T06:10:12;6.80;99.90
39957;DHT22;48483;44.640;7.494;2023-03-04T06:12:39;6.80;99.90
39957;DHT22;48483;44.640;7.494;2023-03-04T06:15:07;6.80;99.90
39957;DHT22;48483;44.640;7.494;2023-03-04T06:17:36;6.80;99.90
39957;DHT22;48483;44.640;7.494;2023-03-04T06:20:03;6.80;99.90
39957;DHT22;48483;44.640;7.494;2023-03-04T06:22:32;6.80;99.90
39957;DHT22;48483;44.640;7.494;2023-03-04T06:24:58;6.80;99.90
39957;DHT22;48483;44.640;7.494;2023-03-04T06:27:27;6.80;99.90
39957;DHT22;48483;44.640;7.494;2023-03-04T06:29:53;6.80;99.90
39957;DHT22;48483;44.640;7.494;2023-03-04T06:32:20;6.80;99.90
39957;DHT22;48483;44.640;7.494;2023-03-04T06:34:46;6.80;99.90
39957;DHT22;48483;44.640;7.494;2023-03-04T06:37:13;6.90;99.90
39957;DHT22;48483;44.640;7.494;2023-03-04T06:39:39;6.90;99.90
39957;DHT22;48483;44.640;7.494;2023-03-04T06:42:06;6.90;99.90
39957;DHT22;48483;44.640;7.494;2023-03-04T06:44:34;6.90;99.90
39957;DHT22;48483;44.640;7.494;2023-03-04T06:47:00;7.00;99.90
39957;DHT22;48483;44.640;7.494;2023-03-04T06:49:27;7.00;99.90
39957;DHT22;48483;44.640;7.494;2023-03-04T06:51:54;7.00;99.90
39957;DHT22;48483;44.640;7.494;2023-03-04T06:54:20;7.10;99.90
39957;DHT22;48483;44.640;7.494;2023-03-04T06:56:47;7.10;99.90
39957;DHT22;48483;44.640;7.494;2023-03-04T06:59:13;7.30;99.90
39957;DHT22;48483;44.640;7.494;2023-03-04T07:01:41;7.40;99.90
39957;DHT22;48483;44.640;7.494;2023-03-04T07:04:08;7.60;99.90
39957;DHT22;48483;44.640;7.494;2023-03-04T07:06:34;7.80;99.90
39957;DHT22;48483;44.640;7.494;2023-03-04T07:09:01;8.10;99.90
39957;DHT22;48483;44.640;7.494;2023-03-04T07:11:28;8.30;99.90
39957;DHT22;48483;44.640;7.494;2023-03-04T07:13:54;8.30;99.90
39957;DHT22;48483;44.640;7.494;2023-03-04T07:16:22;8.40;99.90
39957;DHT22;48483;44.640;7.494;2023-03-04T07:18:50;8.40;99.90
39957;DHT22;48483;44.640;7.494;2023-03-04T07:21:17;8.50;99.90
39957;DHT22;48483;44.640;7.494;2023-03-04T07:23:44;8.60;99.90
39957;DHT22;48483;44.640;7.494;2023-03-04T07:26:11;8.70;99.90
39957;DHT22;48483;44.640;7.494;2023-03-04T07:28:38;8.80;99.90
39957;DHT22;48483;44.640;7.494;2023-03-04T07:31:09;8.90;99.90
39957;DHT22;48483;44.640;7.494;2023-03-04T07:33:36;9.00;99.90
39957;DHT22;48483;44.640;7.494;2023-03-04T07:36:05;9.10;99.90
39957;DHT22;48483;44.640;7.494;2023-03-04T07:38:31;9.20;99.90
39957;DHT22;48483;44.640;7.494;2023-03-04T07:40:59;9.30;99.90
39957;DHT22;48483;44.640;7.494;2023-03-04T07:43:26;9.40;99.90
39957;DHT22;48483;44.640;7.494;2023-03-04T07:45:57;9.50;99.90
39957;DHT22;48483;44.640;7.494;2023-03-04T07:48:24;9.60;99.90
39957;DHT22;48483;44.640;7.494;2023-03-04T07:51:07;9.60;99.90
39957;DHT22;48483;44.640;7.494;2023-03-04T07:53:34;9.70;99.90
39957;DHT22;48483;44.640;7.494;2023-03-04T07:56:01;9.80;99.90
39957;DHT22;48483;44.640;7.494;2023-03-04T07:58:28;10.00;99.90
39957;DHT22;48483;44.640;7.494;2023-03-04T08:00:54;10.10;99.90
39957;DHT22;48483;44.640;7.494;2023-03-04T08:03:21;10.10;99.90
39957;DHT22;48483;44.640;7.494;2023-03-04T08:05:47;10.20;99.90
39957;DHT22;48483;44.640;7.494;2023-03-04T08:08:15;10.30;99.90
39957;DHT22;48483;44.640;7.494;2023-03-04T08:10:42;10.30;99.90
39957;DHT22;48483;44.640;7.494;2023-03-04T08:13:09;10.20;99.90
39957;DHT22;48483;44.640;7.494;2023-03-04T08:15:39;10.30;99.90
39957;DHT22;48483;44.640;7.494;2023-03-04T08:18:06;10.40;99.90
39957;DHT22;48483;44.640;7.494;2023-03-04T08:20:33;10.50;99.90
39957;DHT22;48483;44.640;7.494;2023-03-04T08:23:00;10.50;99.90
39957;DHT22;48483;44.640;7.494;2023-03-04T08:25:28;10.50;99.90
39957;DHT22;48483;44.640;7.494;2023-03-04T08:27:54;10.60;99.90
39957;DHT22;48483;44.640;7.494;2023-03-04T08:30:21;10.60;99.90
39957;DHT22;48483;44.640;7.494;2023-03-04T08:32:48;10.70;99.90
39957;DHT22;48483;44.640;7.494;2023-03-04T08:35:14;10.70;99.90
39957;DHT22;48483;44.640;7.494;2023-03-04T08:37:41;10.80;99.90
39957;DHT22;48483;44.640;7.494;2023-03-04T08:40:09;10.80;99.90
39957;DHT22;48483;44.640;7.494;2023-03-04T08:42:37;10.90;99.90
39957;DHT22;48483;44.640;7.494;2023-03-04T08:45:04;10.90;99.90
39957;DHT22;48483;44.640;7.494;2023-03-04T08:47:31;11.00;99.90
39957;DHT22;48483;44.640;7.494;2023-03-04T08:49:57;11.10;99.90
39957;DHT22;48483;44.640;7.494;2023-03-04T08:52:25;11.00;99.90
39957;DHT22;48483;44.640;7.494;2023-03-04T08:54:53;11.10;99.90
39957;DHT22;48483;44.640;7.494;2023-03-04T08:57:20;11.30;99.90
39957;DHT22;48483;44.640;7.494;2023-03-04T08:59:48;11.40;99.90
39957;DHT22;48483;44.640;7.494;2023-03-04T09:02:14;11.40;99.90
39957;DHT22;48483;44.640;7.494;2023-03-04T09:04:41;11.40;99.90
39957;DHT22;48483;44.640;7.494;2023-03-04T09:07:07;11.40;99.90
39957;DHT22;48483;44.640;7.494;2023-03-04T09:09:35;11.40;99.90
39957;DHT22;48483;44.640;7.494;2023-03-04T09:12:01;11.40;99.90
39957;DHT22;48483;44.640;7.494;2023-03-04T09:14:28;11.40;99.90
39957;DHT22;48483;44.640;7.494;2023-03-04T09:16:56;11.40;99.90
39957;DHT22;48483;44.640;7.494;2023-03-04T09:19:22;11.50;99.90
39957;DHT22;48483;44.640;7.494;2023-03-04T09:21:49;11.50;99.90
39957;DHT22;48483;44.640;7.494;2023-03-04T09:24:16;11.60;99.90
39957;DHT22;48483;44.640;7.494;2023-03-04T09:26:42;11.70;99.90
39957;DHT22;48483;44.640;7.494;2023-03-04T09:29:10;11.70;99.90
39957;DHT22;48483;44.640;7.494;2023-03-04T09:31:37;11.60;99.90
39957;DHT22;48483;44.640;7.494;2023-03-04T09:34:05;11.70;99.90
39957;DHT22;48483;44.640;7.494;2023-03-04T09:36:31;11.80;99.90
39957;DHT22;48483;44.640;7.494;2023-03-04T09:38:58;11.90;99.90
39957;DHT22;48483;44.640;7.494;2023-03-04T09:41:36;11.90;99.90
39957;DHT22;48483;44.640;7.494;2023-03-04T09:44:05;11.90;99.90
39957;DHT22;48483;44.640;7.494;2023-03-04T09:46:35;11.90;99.90
39957;DHT22;48483;44.640;7.494;2023-03-04T09:49:04;12.00;99.90
39957;DHT22;48483;44.640;7.494;2023-03-04T09:51:41;12.10;99.90
39957;DHT22;48483;44.640;7.494;2023-03-04T09:54:13;12.20;99.90
39957;DHT22;48483;44.640;7.494;2023-03-04T09:56:41;12.10;99.90
39957;DHT22;48483;44.640;7.494;2023-03-04T09:59:16;12.10;99.90
39957;DHT22;48483;44.640;7.494;2023-03-04T10:01:49;12.20;99.90
39957;DHT22;48483;44.640;7.494;2023-03-04T10:04:25;12.30;99.90
39957;DHT22;48483;44.640;7.494;2023-03-04T10:06:54;12.30;99.90
39957;DHT22;48483;44.640;7.494;2023-03-04T10:09:24;12.30;99.90
39957;DHT22;48483;44.640;7.494;2023-03-04T10:11:58;12.40;99.90
39957;DHT22;48483;44.640;7.494;2023-03-04T10:14:33;12.30;99.90
39957;DHT22;48483;44.640;7.494;2023-03-04T10:17:06;12.30;99.90
39957;DHT22;48483;44.640;7.494;2023-03-04T10:22:31;12.30;99.90
39957;DHT22;48483;44.640;7.494;2023-03-04T10:25:09;12.30;99.90
39957;DHT22;48483;44.640;7.494;2023-03-04T10:27:40;12.30;99.90
39957;DHT22;48483;44.640;7.494;2023-03-04T10:30:14;12.30;99.90
39957;DHT22;48483;44.640;7.494;2023-03-04T10:32:45;12.30;99.90
39957;DHT22;48483;44.640;7.494;2023-03-04T10:35:13;12.40;99.90
39957;DHT22;48483;44.640;7.494;2023-03-04T10:37:45;12.40;99.90
39957;DHT22;48483;44.640;7.494;2023-03-04T10:40:19;12.60;99.90
39957;DHT22;48483;44.640;7.494;2023-03-04T10:42:48;12.60;99.90
39957;DHT22;48483;44.640;7.494;2023-03-04T10:45:19;12.70;99.90
39957;DHT22;48483;44.640;7.494;2023-03-04T10:47:52;12.70;99.90
39957;DHT22;48483;44.640;7.494;2023-03-04T10:50:23;12.70;99.90
39957;DHT22;48483;44.640;7.494;2023-03-04T10:52:50;12.80;99.90
39957;DHT22;48483;44.640;7.494;2023-03-04T10:55:22;12.80;99.90
39957;DHT22;48483;44.640;7.494;2023-03-04T10:57:51;12.80;99.90
39957;DHT22;48483;44.640;7.494;2023-03-04T11:00:28;12.90;99.90
39957;DHT22;48483;44.640;7.494;2023-03-04T11:03:21;12.90;99.90
39957;DHT22;48483;44.640;7.494;2023-03-04T11:05:50;13.00;99.90
39957;DHT22;48483;44.640;7.494;2023-03-04T11:08:20;12.90;99.90
39957;DHT22;48483;44.640;7.494;2023-03-04T11:10:48;13.00;99.90
39957;DHT22;48483;44.640;7.494;2023-03-04T11:13:17;13.10;99.90
39957;DHT22;48483;44.640;7.494;2023-03-04T11:15:49;13.10;99.90
39957;DHT22;48483;44.640;7.494;2023-03-04T11:18:19;13.10;99.90
39957;DHT22;48483;44.640;7.494;2023-03-04T11:20:50;12.90;99.90
39957;DHT22;48483;44.640;7.494;2023-03-04T11:23:19;13.00;99.90
39957;DHT22;48483;44.640;7.494;2023-03-04T11:25:51;13.20;99.90
39957;DHT22;48483;44.640;7.494;2023-03-04T11:28:23;13.20;99.90
39957;DHT22;48483;44.640;7.494;2023-03-04T11:30:54;13.30;99.90
39957;DHT22;48483;44.640;7.494;2023-03-04T11:33:27;13.30;99.90
39957;DHT22;48483;44.640;7.494;2023-03-04T11:36:07;13.30;99.90
39957;DHT22;48483;44.640;7.494;2023-03-04T11:38:41;13.40;99.90
39957;DHT22;48483;44.640;7.494;2023-03-04T11:41:11;13.50;99.90
39957;DHT22;48483;44.640;7.494;2023-03-04T11:43:41;13.50;99.90
39957;DHT22;48483;44.640;7.494;2023-03-04T11:49:15;13.50;99.90
39957;DHT22;48483;44.640;7.494;2023-03-04T11:51:51;13.50;99.90
39957;DHT22;48483;44.640;7.494;2023-03-04T11:54:30;13.50;99.90
39957;DHT22;48483;44.640;7.494;2023-03-04T11:57:04;13.60;99.90
39957;DHT22;48483;44.640;7.494;2023-03-04T11:59:42;13.70;99.90
39957;DHT22;48483;44.640;7.494;2023-03-04T12:02:16;13.70;99.90
39957;DHT22;48483;44.640;7.494;2023-03-04T12:07:58;13.80;99.90
39957;DHT22;48483;44.640;7.494;2023-03-04T12:10:34;13.70;99.90
39957;DHT22;48483;44.640;7.494;2023-03-04T12:16:16;13.80;99.90
39957;DHT22;48483;44.640;7.494;2023-03-04T12:18:59;13.90;99.90
39957;DHT22;48483;44.640;7.494;2023-03-04T12:21:46;13.90;99.90
39957;DHT22;48483;44.640;7.494;2023-03-04T12:24:33;13.90;99.90
39957;DHT22;48483;44.640;7.494;2023-03-04T12:27:07;13.90;99.90
39957;DHT22;48483;44.640;7.494;2023-03-04T12:29:41;13.80;99.90
39957;DHT22;48483;44.640;7.494;2023-03-04T12:32:16;13.80;99.90
39957;DHT22;48483;44.640;7.494;2023-03-04T12:35:02;13.90;99.90
39957;DHT22;48483;44.640;7.494;2023-03-04T12:38:01;14.00;99.90
39957;DHT22;48483;44.640;7.494;2023-03-04T12:40:41;14.10;99.90
39957;DHT22;48483;44.640;7.494;2023-03-04T12:43:29;14.10;99.90
39957;DHT22;48483;44.640;7.494;2023-03-04T12:46:04;14.20;99.90
39957;DHT22;48483;44.640;7.494;2023-03-04T12:48:36;14.20;99.90
39957;DHT22;48483;44.640;7.494;2023-03-04T12:51:14;14.20;99.90
39957;DHT22;48483;44.640;7.494;2023-03-04T12:53:52;14.20;99.90
39957;DHT22;48483;44.640;7.494;2023-03-04T12:56:25;14.20;99.90
39957;DHT22;48483;44.640;7.494;2023-03-04T12:58:55;14.20;99.90
39957;DHT22;48483;44.640;7.494;2023-03-04T13:01:26;14.20;99.90
39957;DHT22;48483;44.640;7.494;2023-03-04T13:03:58;14.20;99.90
39957;DHT22;48483;44.640;7.494;2023-03-04T13:06:34;14.20;99.90
39957;DHT22;48483;44.640;7.494;2023-03-04T13:09:08;14.20;99.90
39957;DHT22;48483;44.640;7.494;2023-03-04T13:11:53;14.20;99.90
39957;DHT22;48483;44.640;7.494;2023-03-04T13:14:31;14.10;99.90
39957;DHT22;48483;44.640;7.494;2023-03-04T13:17:00;14.20;99.90
39957;DHT22;48483;44.640;7.494;2023-03-04T13:19:49;14.20;99.90
39957;DHT22;48483;44.640;7.494;2023-03-04T13:22:27;14.30;99.90
39957;DHT22;48483;44.640;7.494;2023-03-04T13:24:55;14.30;99.90
39957;DHT22;48483;44.640;7.494;2023-03-04T13:27:45;14.30;99.90
39957;DHT22;48483;44.640;7.494;2023-03-04T13:30:39;14.40;99.90
39957;DHT22;48483;44.640;7.494;2023-03-04T13:33:44;14.40;99.90
39957;DHT22;48483;44.640;7.494;2023-03-04T13:39:24;14.40;99.90
39957;DHT22;48483;44.640;7.494;2023-03-04T13:41:51;14.50;99.90
39957;DHT22;48483;44.640;7.494;2023-03-04T13:44:57;14.60;99.90
39957;DHT22;48483;44.640;7.494;2023-03-04T13:47:41;14.60;99.90
39957;DHT22;48483;44.640;7.494;2023-03-04T13:50:35;14.60;99.90
39957;DHT22;48483;44.640;7.494;2023-03-04T13:53:21;14.70;99.90
39957;DHT22;48483;44.640;7.494;2023-03-04T13:56:25;14.70;99.90
39957;DHT22;48483;44.640;7.494;2023-03-04T13:59:00;14.60;99.90
39957;DHT22;48483;44.640;7.494;2023-03-04T14:01:30;14.60;99.90
39957;DHT22;48483;44.640;7.494;2023-03-04T14:03:58;14.60;99.90
39957;DHT22;48483;44.640;7.494;2023-03-04T14:06:26;14.50;99.90
39957;DHT22;48483;44.640;7.494;2023-03-04T14:08:54;14.40;99.90
39957;DHT22;48483;44.640;7.494;2023-03-04T14:11:28;14.40;99.90
39957;DHT22;48483;44.640;7.494;2023-03-04T14:13:58;14.50;99.90
39957;DHT22;48483;44.640;7.494;2023-03-04T14:16:46;14.60;99.90
39957;DHT22;48483;44.640;7.494;2023-03-04T14:19:18;14.60;99.90
39957;DHT22;48483;44.640;7.494;2023-03-04T14:21:48;14.50;99.90
39957;DHT22;48483;44.640;7.494;2023-03-04T14:24:16;14.40;99.90
39957;DHT22;48483;44.640;7.494;2023-03-04T14:26:44;14.50;99.90
39957;DHT22;48483;44.640;7.494;2023-03-04T14:29:24;14.60;99.90
39957;DHT22;48483;44.640;7.494;2023-03-04T14:31:53;14.60;99.90
39957;DHT22;48483;44.640;7.494;2023-03-04T14:34:24;14.60;99.90
39957;DHT22;48483;44.640;7.494;2023-03-04T14:36:51;14.70;99.90
39957;DHT22;48483;44.640;7.494;2023-03-04T14:39:20;14.70;99.90
39957;DHT22;48483;44.640;7.494;2023-03-04T14:41:48;14.70;99.90
39957;DHT22;48483;44.640;7.494;2023-03-04T14:44:23;14.70;99.90
39957;DHT22;48483;44.640;7.494;2023-03-04T14:46:57;14.80;99.90
39957;DHT22;48483;44.640;7.494;2023-03-04T14:49:24;14.80;99.90
39957;DHT22;48483;44.640;7.494;2023-03-04T14:51:51;14.80;99.90
39957;DHT22;48483;44.640;7.494;2023-03-04T14:54:27;14.80;99.90
39957;DHT22;48483;44.640;7.494;2023-03-04T14:56:54;14.80;99.90
39957;DHT22;48483;44.640;7.494;2023-03-04T14:59:39;14.70;99.90
39957;DHT22;48483;44.640;7.494;2023-03-04T15:02:19;14.80;99.90
39957;DHT22;48483;44.640;7.494;2023-03-04T15:04:46;14.80;99.90
39957;DHT22;48483;44.640;7.494;2023-03-04T15:07:15;14.80;99.90
39957;DHT22;48483;44.640;7.494;2023-03-04T15:09:49;14.70;99.90
39957;DHT22;48483;44.640;7.494;2023-03-04T15:12:22;14.70;99.90
39957;DHT22;48483;44.640;7.494;2023-03-04T15:14:51;14.60;99.90
39957;DHT22;48483;44.640;7.494;2023-03-04T15:17:33;14.60;99.90
39957;DHT22;48483;44.640;7.494;2023-03-04T15:20:19;14.60;99.90
39957;DHT22;48483;44.640;7.494;2023-03-04T15:23:03;14.60;99.90
39957;DHT22;48483;44.640;7.494;2023-03-04T15:25:32;14.60;99.90
39957;DHT22;48483;44.640;7.494;2023-03-04T15:27:59;14.50;99.90
39957;DHT22;48483;44.640;7.494;2023-03-04T15:30:28;14.60;99.90
39957;DHT22;48483;44.640;7.494;2023-03-04T15:32:57;14.50;99.90
39957;DHT22;48483;44.640;7.494;2023-03-04T15:35:27;14.60;99.90
39957;DHT22;48483;44.640;7.494;2023-03-04T15:37:54;14.60;99.90
39957;DHT22;48483;44.640;7.494;2023-03-04T15:40:25;14.70;99.90
39957;DHT22;48483;44.640;7.494;2023-03-04T15:42:53;14.60;99.90
39957;DHT22;48483;44.640;7.494;2023-03-04T15:45:22;14.60;99.90
39957;DHT22;48483;44.640;7.494;2023-03-04T15:47:49;14.60;99.90
39957;DHT22;48483;44.640;7.494;2023-03-04T15:50:19;14.60;99.90
39957;DHT22;48483;44.640;7.494;2023-03-04T15:52:46;14.60;99.90
39957;DHT22;48483;44.640;7.494;2023-03-04T15:55:16;14.50;99.70
39957;DHT22;48483;44.640;7.494;2023-03-04T15:57:44;14.50;99.90
39957;DHT22;48483;44.640;7.494;2023-03-04T16:00:12;14.80;99.90
39957;DHT22;48483;44.640;7.494;2023-03-04T16:02:39;15.20;99.60
39957;DHT22;48483;44.640;7.494;2023-03-04T16:05:06;15.40;99.00
39957;DHT22;48483;44.640;7.494;2023-03-04T16:07:35;15.10;99.50
39957;DHT22;48483;44.640;7.494;2023-03-04T16:10:05;14.90;99.80